Time;durP1;ratioP1;P1;durP2;ratioP2;P2;SDS_P1;SDS_P2;PMS_P1;PMS_P2;Temp;Humidity;BMP_temperature;BMP_pressure;BME280_temperature;BME280_humidity;BME280_pressure;Samples;Min_cycle;Max_cycle;Signal;HPM_P1;HPM_P2
2021/10/14 00:01:41;;;;;;;49.93;38.08;;;;;;;14.09;78.83;100125.96;1773200;81;20908;-82
2021/10/14 00:04:08;;;;;;;48.25;38.98;;;;;;;14.08;78.91;100124.27;1773005;81;20893;-80
2021/10/14 00:06:35;;;;;;;47.73;38.08;;;;;;;14.08;78.99;100127.39;1772848;80;20971;-81
2021/10/14 00:09:02;;;;;;;48.00;36.35;;;;;;;14.02;78.88;100130.04;1772882;79;21145;-80
2021/10/14 00:11:29;;;;;;;41.83;33.88;;;;;;;13.94;78.76;100131.17;1777616;79;20880;-81
2021/10/14 00:13:56;;;;;;;46.58;34.20;;;;;;;13.87;78.68;100132.61;1778513;79;20959;-81
2021/10/14 00:16:23;;;;;;;41.83;31.07;;;;;;;13.82;78.97;100129.52;1779131;79;21003;-81
2021/10/14 00:18:50;;;;;;;39.08;31.12;;;;;;;13.79;79.14;100144.28;1778621;80;20896;-81
2021/10/14 00:21:17;;;;;;;42.67;32.67;;;;;;;13.74;79.31;100142.02;1739143;81;21101;-81
2021/10/14 00:23:45;;;;;;;55.23;42.17;;;;;;;13.72;79.64;100151.84;1722813;83;20976;-81
2021/10/14 00:26:12;;;;;;;57.23;43.05;;;;;;;13.71;79.79;100148.84;1739057;82;21383;-80
2021/10/14 00:28:39;;;;;;;54.42;41.55;;;;;;;13.71;79.61;100154.59;1778423;80;20966;-80
2021/10/14 00:31:06;;;;;;;48.68;35.68;;;;;;;13.67;79.16;100153.54;1778581;80;20861;-80
2021/10/14 00:33:33;;;;;;;48.83;36.10;;;;;;;13.62;78.87;100150.41;1739014;81;21071;-80
2021/10/14 00:35:59;;;;;;;45.67;33.38;;;;;;;13.56;78.63;100155.34;1738810;81;21435;-81
2021/10/14 00:38:26;;;;;;;43.63;32.65;;;;;;;13.50;78.64;100153.22;1722766;83;21000;-81
2021/10/14 00:40:54;;;;;;;42.60;31.27;;;;;;;13.43;78.71;100157.65;1739030;82;21513;-82
2021/10/14 00:43:21;;;;;;;40.60;31.45;;;;;;;13.39;78.87;100164.60;1778634;80;20884;-82
2021/10/14 00:45:48;;;;;;;38.78;29.05;;;;;;;13.36;78.90;100171.41;1778742;79;21098;-81
2021/10/14 00:48:14;;;;;;;34.15;26.23;;;;;;;13.35;78.74;100173.70;1738901;82;21501;-84
2021/10/14 00:50:41;;;;;;;31.45;23.50;;;;;;;13.32;78.46;100168.66;1723069;83;20881;-84
2021/10/14 00:53:08;;;;;;;30.05;23.70;;;;;;;13.28;78.39;100174.66;1738928;82;20976;-84
2021/10/14 00:55:35;;;;;;;30.17;23.32;;;;;;;13.23;78.40;100176.31;1739293;82;20913;-84
2021/10/14 00:58:02;;;;;;;28.52;23.15;;;;;;;13.17;78.28;100182.05;1778713;80;21853;-83
2021/10/14 01:00:29;;;;;;;32.05;25.45;;;;;;;13.09;78.36;100189.69;1778424;80;20869;-84
2021/10/14 01:02:56;;;;;;;33.33;25.43;;;;;;;13.04;78.44;100190.53;1778644;80;20853;-82
2021/10/14 01:05:22;;;;;;;31.45;25.00;;;;;;;13.00;78.45;100194.36;1779082;80;20963;-82
2021/10/14 01:07:49;;;;;;;33.45;24.52;;;;;;;12.99;78.44;100199.27;1778490;80;20911;-83
2021/10/14 01:10:16;;;;;;;29.77;22.90;;;;;;;12.97;78.51;100205.96;1750429;80;21113;-83
2021/10/14 01:12:44;;;;;;;30.65;22.87;;;;;;;12.95;78.53;100212.30;1778637;80;21444;-82
2021/10/14 01:15:24;;;;;;;25.72;22.00;;;;;;;12.92;78.57;100216.50;1778763;80;21456;-82
2021/10/14 01:17:51;;;;;;;24.85;21.07;;;;;;;12.90;78.57;100222.36;1778723;80;21381;-82
2021/10/14 01:20:18;;;;;;;20.97;18.07;;;;;;;12.85;78.36;100227.97;1779158;80;21453;-84
2021/10/14 01:22:45;;;;;;;23.70;18.25;;;;;;;12.78;77.99;100222.78;1778793;80;21129;-83
2021/10/14 01:25:11;;;;;;;22.37;17.77;;;;;;;12.67;78.12;100231.48;1779006;80;20817;-83
2021/10/14 01:27:39;;;;;;;19.37;15.38;;;;;;;12.60;78.41;100236.36;1778647;80;21357;-84
2021/10/14 01:30:07;;;;;;;19.05;15.55;;;;;;;12.57;78.70;100237.92;1778859;80;20966;-83
2021/10/14 01:32:34;;;;;;;16.00;13.78;;;;;;;12.58;78.86;100240.93;1739353;82;21489;-84
2021/10/14 01:35:03;;;;;;;15.13;12.88;;;;;;;12.55;78.94;100249.52;1739826;82;21277;-83
2021/10/14 01:37:29;;;;;;;14.20;12.03;;;;;;;12.51;78.97;100259.41;1718282;83;20846;-82
2021/10/14 01:39:57;;;;;;;12.63;11.28;;;;;;;12.46;78.89;100262.86;1718568;82;21000;-82
2021/10/14 01:42:24;;;;;;;12.43;11.12;;;;;;;12.42;78.80;100271.92;1718470;83;20921;-83
2021/10/14 01:44:51;;;;;;;8.80;7.90;;;;;;;12.41;78.79;100278.16;1718348;83;20893;-82
2021/10/14 01:47:18;;;;;;;8.90;7.90;;;;;;;12.36;78.79;100274.55;1718290;83;21139;-84
2021/10/14 01:49:45;;;;;;;8.33;7.42;;;;;;;12.28;78.58;100285.25;1718625;83;20988;-83
2021/10/14 01:52:11;;;;;;;9.33;8.43;;;;;;;12.18;78.74;100293.81;1718461;83;20842;-82
2021/10/14 01:54:39;;;;;;;8.58;7.50;;;;;;;12.08;79.04;100295.41;1718211;83;20897;-82
2021/10/14 01:57:05;;;;;;;7.00;6.35;;;;;;;12.01;78.91;100302.89;1718543;83;20961;-82
2021/10/14 01:59:32;;;;;;;6.70;6.10;;;;;;;11.92;78.95;100296.98;1718615;82;21037;-82
2021/10/14 02:01:59;;;;;;;9.43;7.05;;;;;;;11.85;79.03;100309.30;1718381;83;21400;-81
2021/10/14 02:04:25;;;;;;;4.28;3.87;;;;;;;11.76;79.44;100308.15;1718908;83;20973;-81
2021/10/14 02:06:52;;;;;;;6.05;5.55;;;;;;;11.71;79.50;100322.09;1718530;83;20901;-82
2021/10/14 02:09:19;;;;;;;3.60;3.33;;;;;;;11.67;79.79;100324.55;1718782;83;21082;-81
2021/10/14 02:11:46;;;;;;;3.40;3.10;;;;;;;11.61;79.85;100325.36;1734433;82;21175;-82
2021/10/14 02:14:13;;;;;;;3.77;3.45;;;;;;;11.53;79.87;100328.97;1741949;82;20850;-82
2021/10/14 02:16:40;;;;;;;2.60;2.40;;;;;;;11.47;80.06;100320.67;1743579;82;21433;-82
2021/10/14 02:19:06;;;;;;;2.47;2.37;;;;;;;11.44;80.14;100328.30;1744933;82;20862;-82
2021/10/14 02:21:35;;;;;;;2.52;2.10;;;;;;;11.40;80.16;100324.19;1745063;77;20882;-82
2021/10/14 02:25:25;;;;;;;2.10;2.00;;;;;;;11.38;80.31;100328.70;1801758;78;22477;-82
2021/10/14 02:27:52;;;;;;;2.33;2.20;;;;;;;11.30;80.65;100344.16;1761918;80;20931;-80
2021/10/14 02:30:19;;;;;;;1.82;1.60;;;;;;;11.24;80.59;100349.33;1761934;78;21051;-80
2021/10/14 02:32:46;;;;;;;1.70;1.60;;;;;;;11.19;80.79;100348.33;1761355;80;20877;-80
2021/10/14 02:35:12;;;;;;;1.45;1.35;;;;;;;11.18;80.86;100353.67;1762130;81;20924;-79
2021/10/14 02:37:40;;;;;;;1.02;1.02;;;;;;;11.17;80.84;100352.84;1761174;80;20971;-79
2021/10/14 02:40:08;;;;;;;0.90;0.90;;;;;;;11.16;80.81;100363.43;1761774;80;20909;-80
2021/10/14 02:42:35;;;;;;;0.60;0.60;;;;;;;11.13;80.73;100369.73;1761897;80;21086;-82
2021/10/14 02:45:03;;;;;;;1.00;1.00;;;;;;;11.10;80.83;100379.61;1761958;80;20893;-80
2021/10/14 02:47:30;;;;;;;0.72;0.62;;;;;;;11.08;81.11;100375.77;1761568;78;20932;-81
2021/10/14 02:49:58;;;;;;;0.78;0.68;;;;;;;11.07;80.90;100381.97;1762134;81;20979;-79
2021/10/14 02:52:25;;;;;;;1.85;1.05;;;;;;;11.05;80.97;100391.72;1761716;80;20912;-80
2021/10/14 02:54:52;;;;;;;0.75;0.75;;;;;;;11.04;80.77;100388.71;1760438;81;21808;-80
2021/10/14 02:57:18;;;;;;;0.53;0.53;;;;;;;11.05;80.79;100398.73;1758975;81;20951;-81
2021/10/14 02:59:50;;;;;;;0.50;0.47;;;;;;;11.05;80.96;100401.36;1758816;81;20876;-81
2021/10/14 03:02:20;;;;;;;2.58;0.50;;;;;;;11.07;80.94;100420.02;1758667;81;20892;-79
2021/10/14 03:04:47;;;;;;;0.90;0.90;;;;;;;11.08;80.89;100421.69;1758828;81;20927;-78
2021/10/14 03:07:14;;;;;;;1.72;0.80;;;;;;;11.08;80.80;100429.56;1758588;81;22122;-79
2021/10/14 03:09:41;;;;;;;0.60;0.50;;;;;;;11.03;80.57;100431.66;1758719;81;20971;-79
2021/10/14 03:12:09;;;;;;;0.30;0.25;;;;;;;11.02;80.54;100430.43;1758363;80;20948;-80
2021/10/14 03:14:37;;;;;;;1.37;0.47;;;;;;;10.99;80.28;100440.66;1758360;81;20865;-81
2021/10/14 03:17:04;;;;;;;0.60;0.60;;;;;;;10.91;80.27;100444.23;1758779;81;20841;-82
2021/10/14 03:19:30;;;;;;;0.23;0.20;;;;;;;10.87;80.42;100444.06;1758788;80;21144;-80
2021/10/14 03:21:57;;;;;;;0.47;0.37;;;;;;;10.84;80.51;100449.52;1758397;81;20967;-80
2021/10/14 03:24:24;;;;;;;0.53;0.53;;;;;;;10.81;80.62;100451.87;1758823;81;20896;-80
2021/10/14 03:26:51;;;;;;;0.50;0.50;;;;;;;10.79;80.87;100459.83;1722549;83;20939;-82
2021/10/14 03:29:18;;;;;;;0.95;0.37;;;;;;;10.84;80.87;100463.46;1722835;83;21023;-80
2021/10/14 03:31:45;;;;;;;0.55;0.55;;;;;;;10.89;80.70;100473.66;1723787;82;21124;-81
2021/10/14 03:34:12;;;;;;;0.85;0.62;;;;;;;10.92;80.56;100474.32;1725425;83;20923;-82
2021/10/14 03:36:39;;;;;;;1.02;0.53;;;;;;;10.95;80.54;100480.67;1725138;83;21424;-81
2021/10/14 03:39:06;;;;;;;0.72;0.68;;;;;;;10.96;80.32;100485.44;1723370;83;20900;-81
2021/10/14 03:41:33;;;;;;;1.20;0.93;;;;;;;10.94;80.45;100487.35;1722373;82;20884;-80
2021/10/14 03:44:00;;;;;;;2.37;1.10;;;;;;;10.94;80.14;100494.75;1722234;83;21113;-82
2021/10/14 03:46:27;;;;;;;2.60;1.07;;;;;;;10.88;79.91;100494.29;1721822;83;20931;-81
2021/10/14 03:48:54;;;;;;;0.70;0.70;;;;;;;10.84;79.85;100489.70;1722078;83;20884;-82
2021/10/14 03:51:20;;;;;;;1.45;1.35;;;;;;;10.79;79.68;100497.86;1722161;83;21381;-81
2021/10/14 03:53:47;;;;;;;0.95;0.85;;;;;;;10.72;79.72;100507.06;1721993;83;20978;-80
2021/10/14 03:56:14;;;;;;;1.07;0.98;;;;;;;10.70;79.91;100512.86;1722385;83;21764;-80
2021/10/14 03:58:41;;;;;;;1.00;1.00;;;;;;;10.67;80.05;100529.25;1721865;83;20893;-79
2021/10/14 04:01:08;;;;;;;1.95;1.85;;;;;;;10.64;80.26;100535.53;1721774;82;20962;-80
2021/10/14 04:03:35;;;;;;;1.40;1.30;;;;;;;10.63;80.34;100535.17;1722073;83;21026;-80
2021/10/14 04:06:02;;;;;;;2.02;1.92;;;;;;;10.64;80.13;100542.09;1722220;82;21293;-81
2021/10/14 04:08:28;;;;;;;2.45;2.25;;;;;;;10.61;80.09;100546.70;1721825;83;21129;-81
2021/10/14 04:10:55;;;;;;;2.52;2.33;;;;;;;10.56;80.06;100546.95;1722091;83;20852;-81
2021/10/14 04:13:22;;;;;;;2.37;2.17;;;;;;;10.55;80.24;100553.98;1722106;82;21398;-82
2021/10/14 04:15:49;;;;;;;2.45;2.25;;;;;;;10.53;80.21;100561.57;1721779;82;20970;-82
2021/10/14 04:18:16;;;;;;;3.40;3.10;;;;;;;10.48;79.98;100570.19;1722247;83;21449;-82
2021/10/14 04:20:42;;;;;;;3.60;3.30;;;;;;;10.43;79.92;100568.32;1722396;83;21105;-82
2021/10/14 04:23:10;;;;;;;3.50;3.20;;;;;;;10.41;79.89;100570.19;1721941;82;21014;-81
2021/10/14 04:25:37;;;;;;;4.78;4.28;;;;;;;10.36;79.73;100587.51;1710870;83;20932;-83
2021/10/14 04:28:04;;;;;;;3.85;3.55;;;;;;;10.29;79.65;100600.13;1708945;84;20868;-83
2021/10/14 04:30:33;;;;;;;8.58;3.83;;;;;;;10.26;79.79;100608.60;1744571;81;21336;-81
2021/10/14 04:33:01;;;;;;;4.17;3.87;;;;;;;10.20;79.46;100607.64;1744937;82;21202;-82
2021/10/14 04:35:27;;;;;;;4.62;4.22;;;;;;;10.12;79.70;100615.49;1744506;82;20964;-81
2021/10/14 04:37:54;;;;;;;4.28;3.87;;;;;;;10.10;79.87;100611.28;1744504;81;21431;-81
2021/10/14 04:40:21;;;;;;;4.28;3.90;;;;;;;10.10;79.77;100624.38;1744473;82;20944;-83
2021/10/14 04:42:48;;;;;;;6.15;4.33;;;;;;;10.08;79.68;100632.32;1744871;81;21011;-81
2021/10/14 04:45:16;;;;;;;4.75;3.67;;;;;;;10.05;79.79;100635.57;1744540;82;21126;-80
2021/10/14 04:47:43;;;;;;;4.83;4.42;;;;;;;10.05;79.67;100645.61;1744473;82;20927;-79
2021/10/14 04:50:10;;;;;;;7.65;5.15;;;;;;;10.01;79.50;100644.09;1744792;81;20944;-80
2021/10/14 04:52:38;;;;;;;5.40;4.90;;;;;;;9.98;79.59;100646.03;1744821;81;21004;-80
2021/10/14 04:55:07;;;;;;;6.28;4.72;;;;;;;9.96;79.52;100652.22;1744660;81;20885;-81
2021/10/14 04:57:33;;;;;;;4.33;4.03;;;;;;;9.98;79.61;100668.30;1744793;81;21138;-81
2021/10/14 05:00:01;;;;;;;4.20;3.77;;;;;;;10.00;79.64;100673.83;1744451;81;21371;-80
2021/10/14 05:02:28;;;;;;;5.70;3.83;;;;;;;10.02;79.47;100681.61;1744486;82;20961;-80
2021/10/14 05:04:54;;;;;;;3.15;2.95;;;;;;;10.03;79.48;100692.01;1744700;82;20873;-80
2021/10/14 05:07:21;;;;;;;4.22;3.83;;;;;;;10.05;79.52;100700.63;1744550;82;20873;-80
2021/10/14 05:09:48;;;;;;;5.08;4.58;;;;;;;10.06;79.55;100714.57;1744675;81;21139;-79
2021/10/14 05:12:15;;;;;;;5.90;4.60;;;;;;;10.04;79.56;100720.36;1744655;82;20889;-80
2021/10/14 05:14:46;;;;;;;5.72;5.20;;;;;;;10.07;79.66;100731.97;1744462;80;20975;-79
2021/10/14 05:17:16;;;;;;;5.67;5.08;;;;;;;10.10;79.62;100738.36;1744704;81;21434;-79
2021/10/14 05:19:44;;;;;;;4.92;4.53;;;;;;;10.13;79.62;100741.64;1744497;81;20881;-79
2021/10/14 05:22:11;;;;;;;6.40;4.37;;;;;;;10.17;79.44;100738.39;1744948;80;21136;-80
2021/10/14 05:24:38;;;;;;;4.95;4.55;;;;;;;10.21;79.64;100745.63;1744408;80;21018;-81
2021/10/14 05:27:05;;;;;;;5.70;5.15;;;;;;;10.26;79.64;100747.52;1744640;82;20940;-80
2021/10/14 05:29:33;;;;;;;5.72;5.22;;;;;;;10.28;79.60;100750.42;1744573;81;20944;-80
2021/10/14 05:32:01;;;;;;;8.23;6.25;;;;;;;10.31;79.71;100759.91;1744571;82;20940;-80
2021/10/14 05:34:27;;;;;;;6.78;6.17;;;;;;;10.37;79.57;100758.27;1744865;82;21193;-81
2021/10/14 05:36:54;;;;;;;8.23;7.40;;;;;;;10.40;79.26;100762.48;1744529;82;20906;-80
2021/10/14 05:39:21;;;;;;;9.13;6.85;;;;;;;10.42;78.96;100770.63;1744731;81;21007;-81
2021/10/14 05:41:48;;;;;;;7.40;6.67;;;;;;;10.44;78.68;100774.48;1743988;80;20964;-79
2021/10/14 05:44:19;;;;;;;11.57;8.13;;;;;;;10.44;78.55;100783.66;1744762;82;20929;-81
2021/10/14 05:46:51;;;;;;;11.22;9.28;;;;;;;10.44;78.58;100787.13;1744702;81;20841;-79
2021/10/14 05:49:27;;;;;;;12.30;11.03;;;;;;;10.46;78.51;100795.75;1690930;84;20975;-79
2021/10/14 05:51:53;;;;;;;15.75;12.13;;;;;;;10.50;78.35;100799.05;1666200;84;21062;-80
2021/10/14 05:54:21;;;;;;;16.02;13.30;;;;;;;10.52;78.13;100797.19;1675696;85;20980;-79
2021/10/14 05:56:59;;;;;;;18.92;12.70;;;;;;;10.55;77.87;100802.25;1675609;84;20937;-79
2021/10/14 05:59:39;;;;;;;20.48;13.13;;;;;;;10.56;77.59;100819.22;1675581;85;21160;-79
2021/10/14 06:02:07;;;;;;;16.90;12.73;;;;;;;10.56;77.55;100816.59;1674677;84;21008;-83
2021/10/14 06:04:39;;;;;;;19.15;14.18;;;;;;;10.55;77.35;100817.52;1675318;85;20972;-81
2021/10/14 06:07:07;;;;;;;23.95;17.05;;;;;;;10.54;77.16;100835.50;1675658;85;20921;-81
2021/10/14 06:09:43;;;;;;;19.85;17.75;;;;;;;10.49;77.27;100845.86;1674743;84;21565;-81
2021/10/14 06:12:13;;;;;;;25.00;18.65;;;;;;;10.47;77.30;100845.09;1675548;85;21565;-80
2021/10/14 06:14:45;;;;;;;22.75;18.23;;;;;;;10.43;77.02;100845.75;1690441;83;21016;-80
2021/10/14 06:17:16;;;;;;;23.52;17.10;;;;;;;10.40;77.01;100853.77;1691171;83;20880;-80
2021/10/14 06:19:44;;;;;;;27.82;18.77;;;;;;;10.41;77.03;100868.58;1690672;84;20940;-80
2021/10/14 06:22:12;;;;;;;20.40;16.25;;;;;;;10.43;77.05;100868.50;1690972;83;20972;-78
2021/10/14 06:24:40;;;;;;;22.90;17.95;;;;;;;10.45;77.15;100874.04;1665085;83;21203;-78
2021/10/14 06:27:11;;;;;;;25.35;18.87;;;;;;;10.50;77.12;100880.34;1673625;85;20945;-80
2021/10/14 06:29:47;;;;;;;24.72;19.62;;;;;;;10.54;76.93;100884.48;1674132;85;21008;-78
2021/10/14 06:32:23;;;;;;;19.90;16.02;;;;;;;10.55;76.82;100890.94;1673393;84;21032;-79
2021/10/14 06:34:53;;;;;;;18.42;13.90;;;;;;;10.58;76.48;100887.30;1673632;85;20980;-81
2021/10/14 06:37:21;;;;;;;20.82;13.58;;;;;;;10.60;76.16;100895.09;1673780;84;21177;-78
2021/10/14 06:39:47;;;;;;;22.73;12.63;;;;;;;10.61;76.07;100891.55;1673708;85;21008;-79
2021/10/14 06:42:14;;;;;;;20.85;14.20;;;;;;;10.63;76.04;100907.58;1673769;85;20901;-79
2021/10/14 06:44:41;;;;;;;18.32;12.45;;;;;;;10.62;75.82;100912.42;1673820;85;21024;-79
2021/10/14 06:47:08;;;;;;;18.48;14.40;;;;;;;10.64;75.71;100921.52;1715678;82;20880;-79
2021/10/14 06:49:35;;;;;;;20.30;13.48;;;;;;;10.64;75.73;100922.36;1720029;82;21770;-79
2021/10/14 06:52:02;;;;;;;16.05;13.00;;;;;;;10.63;75.54;100918.50;1720222;82;20967;-79
2021/10/14 06:54:29;;;;;;;15.10;10.90;;;;;;;10.62;75.41;100914.20;1719785;83;20955;-80
2021/10/14 06:56:56;;;;;;;17.50;11.40;;;;;;;10.63;75.37;100915.88;1720391;83;21409;-79
2021/10/14 06:59:24;;;;;;;15.60;12.20;;;;;;;10.63;75.26;100918.06;1720016;83;20927;-80
2021/10/14 07:01:51;;;;;;;17.92;12.88;;;;;;;10.62;75.15;100926.01;1719973;83;21962;-81
2021/10/14 07:04:18;;;;;;;19.20;12.82;;;;;;;10.58;75.26;100938.43;1719829;82;21014;-80
2021/10/14 07:06:45;;;;;;;16.70;12.10;;;;;;;10.60;75.11;100947.06;1720170;82;20900;-81
2021/10/14 07:09:13;;;;;;;12.70;10.80;;;;;;;10.57;74.99;100947.24;1719888;83;20899;-80
2021/10/14 07:11:58;;;;;;;9.63;7.85;;;;;;;10.55;74.93;100949.10;1720382;82;21469;-82
2021/10/14 07:14:20;;;;;;;11.68;8.25;;;;;;;10.55;74.87;100953.88;1719035;82;21220;-81
2021/10/14 07:17:05;;;;;;;9.75;8.75;;;;;;;10.56;74.99;100955.58;1719538;83;20951;-81
2021/10/14 07:19:42;;;;;;;9.63;8.63;;;;;;;10.57;74.90;100961.20;1719985;83;20979;-79
2021/10/14 07:22:10;;;;;;;10.50;9.00;;;;;;;10.56;74.74;100963.89;1719944;83;20946;-79
2021/10/14 07:24:38;;;;;;;11.35;9.50;;;;;;;10.54;74.60;100968.41;1720252;83;20962;-80
2021/10/14 07:27:07;;;;;;;12.75;10.68;;;;;;;10.53;74.68;100977.18;1757896;80;21139;-84
2021/10/14 07:29:35;;;;;;;10.98;9.85;;;;;;;10.54;74.73;100986.76;1757701;80;20845;-81
2021/10/14 07:32:05;;;;;;;14.93;9.93;;;;;;;10.55;74.45;100992.38;1757951;81;20983;-81
2021/10/14 07:34:35;;;;;;;11.73;9.50;;;;;;;10.53;74.27;101001.62;1758336;81;20928;-85
2021/10/14 07:37:13;;;;;;;12.25;8.83;;;;;;;10.53;74.53;101004.72;1706463;84;21020;-84
2021/10/14 07:39:39;;;;;;;11.63;9.68;;;;;;;10.56;74.38;101005.84;1706578;83;21121;-83
2021/10/14 07:42:06;;;;;;;11.70;10.18;;;;;;;10.60;74.25;101009.16;1706063;84;20925;-83
2021/10/14 07:44:40;;;;;;;13.15;9.98;;;;;;;10.60;74.24;101011.79;1706665;84;21433;-83
2021/10/14 07:47:07;;;;;;;10.43;8.55;;;;;;;10.62;74.25;101022.58;1706118;84;20920;-85
2021/10/14 07:49:35;;;;;;;9.75;8.75;;;;;;;10.62;73.97;101018.64;1705540;84;21767;-83
2021/10/14 07:52:04;;;;;;;9.68;7.67;;;;;;;10.58;73.64;101019.29;1705585;83;20966;-84
2021/10/14 07:54:31;;;;;;;9.55;8.55;;;;;;;10.55;73.58;101031.23;1705566;84;20973;-83
2021/10/14 07:57:00;;;;;;;10.25;8.40;;;;;;;10.56;73.73;101034.70;1705713;84;20952;-86
2021/10/14 07:59:29;;;;;;;10.40;9.40;;;;;;;10.56;73.80;101043.44;1702954;84;21080;-85
2021/10/14 08:02:00;;;;;;;18.55;16.70;;;;;;;10.55;73.86;101049.59;1705881;83;21027;-83
2021/10/14 08:04:28;;;;;;;15.80;12.30;;;;;;;10.57;73.85;101058.23;1706377;83;21399;-82
2021/10/14 08:06:57;;;;;;;13.83;10.78;;;;;;;10.58;73.88;101057.31;1707531;81;20962;-82
2021/10/14 08:09:23;;;;;;;11.45;8.98;;;;;;;10.58;73.72;101056.00;1758252;81;20963;-83
2021/10/14 08:11:51;;;;;;;11.85;9.53;;;;;;;10.61;73.42;101052.84;1757985;80;20991;-82
2021/10/14 08:14:18;;;;;;;15.05;11.15;;;;;;;10.61;73.41;101047.13;1758249;81;21002;-80
2021/10/14 08:16:45;;;;;;;12.63;10.88;;;;;;;10.62;73.33;101061.91;1758128;80;21106;-82
2021/10/14 08:19:12;;;;;;;14.23;11.03;;;;;;;10.61;73.27;101071.20;1758275;80;20944;-80
2021/10/14 08:21:39;;;;;;;13.20;11.03;;;;;;;10.58;73.30;101076.98;1757969;81;20987;-81
2021/10/14 08:24:05;;;;;;;14.28;11.30;;;;;;;10.58;73.30;101080.05;1758292;81;20936;-83
2021/10/14 08:26:32;;;;;;;15.43;10.50;;;;;;;10.54;73.13;101085.94;1748850;81;20866;-82
2021/10/14 08:28:59;;;;;;;12.98;11.12;;;;;;;10.53;73.15;101095.19;1744599;82;21767;-83
2021/10/14 08:31:26;;;;;;;11.65;9.78;;;;;;;10.51;73.25;101099.66;1744675;82;20884;-82
2021/10/14 08:33:54;;;;;;;11.83;10.08;;;;;;;10.51;73.41;101103.12;1744714;82;20881;-80
2021/10/14 08:36:21;;;;;;;12.35;10.58;;;;;;;10.54;73.40;101100.83;1744869;81;21000;-82
2021/10/14 08:38:48;;;;;;;20.75;14.03;;;;;;;10.56;73.53;101105.50;1745479;82;21047;-82
2021/10/14 08:41:20;;;;;;;19.30;14.07;;;;;;;10.56;72.96;101113.38;1744743;81;21044;-84
2021/10/14 08:43:48;;;;;;;19.35;15.43;;;;;;;10.57;73.03;101108.05;1744476;82;21512;-82
2021/10/14 08:46:15;;;;;;;22.45;17.77;;;;;;;10.62;73.03;101114.37;1744689;82;20917;-82
2021/10/14 08:48:43;;;;;;;23.80;15.98;;;;;;;10.64;72.63;101121.70;1744553;81;20932;-84
2021/10/14 08:51:09;;;;;;;19.55;14.68;;;;;;;10.68;72.49;101113.22;1744729;81;21043;-83
2021/10/14 08:53:37;;;;;;;16.35;13.62;;;;;;;10.74;72.34;101128.17;1744586;81;21143;-83
2021/10/14 08:56:05;;;;;;;18.82;13.55;;;;;;;10.79;72.32;101142.36;1744647;80;20882;-84
2021/10/14 08:58:32;;;;;;;13.22;11.03;;;;;;;10.83;72.37;101148.27;1744891;82;20925;-82
2021/10/14 09:01:13;;;;;;;14.78;11.25;;;;;;;10.86;71.53;101153.38;1744844;82;21513;-83
2021/10/14 09:03:44;;;;;;;13.75;11.95;;;;;;;10.84;71.28;101144.73;1744506;81;20889;-82
2021/10/14 09:06:12;;;;;;;18.65;12.37;;;;;;;10.81;71.39;101153.62;1744563;82;21929;-84
2021/10/14 09:08:51;;;;;;;12.95;11.65;;;;;;;10.83;71.81;101167.95;1744387;82;21609;-83
2021/10/14 09:11:24;;;;;;;12.95;10.10;;;;;;;10.85;71.40;101169.59;1744507;82;21031;-84
2021/10/14 09:13:53;;;;;;;14.63;10.93;;;;;;;10.91;71.69;101157.91;1744564;81;21477;-84
2021/10/14 09:16:38;;;;;;;12.55;10.50;;;;;;;10.96;71.42;101158.06;1744595;81;21546;-85
2021/10/14 09:19:19;;;;;;;16.23;11.33;;;;;;;10.98;71.12;101155.33;1744699;81;21941;-83
2021/10/14 09:21:59;;;;;;;13.08;11.50;;;;;;;11.02;71.39;101167.84;1744565;82;20889;-83
2021/10/14 09:24:37;;;;;;;13.15;10.88;;;;;;;11.07;70.55;101169.75;1744520;82;20991;-83
2021/10/14 09:27:09;;;;;;;12.15;10.00;;;;;;;11.08;70.11;101177.55;1744030;80;20944;-82
2021/10/14 09:29:37;;;;;;;10.48;9.30;;;;;;;11.08;69.97;101179.33;1744565;82;21047;-82
2021/10/14 09:32:15;;;;;;;12.85;10.15;;;;;;;11.09;69.83;101186.27;1744514;82;21802;-84
2021/10/14 09:34:43;;;;;;;12.20;10.30;;;;;;;11.13;69.53;101183.39;1744249;81;20881;-81
2021/10/14 09:37:22;;;;;;;12.18;9.78;;;;;;;11.18;69.35;101189.27;1744498;82;20953;-80
2021/10/14 09:40:02;;;;;;;11.43;9.55;;;;;;;11.27;69.39;101186.62;1744646;81;21588;-81
2021/10/14 09:43:05;;;;;;;16.00;11.45;;;;;;;11.41;69.13;101184.55;1744683;81;20984;-84
2021/10/14 09:45:26;;;;;;;14.55;10.50;;;;;;;11.60;68.97;101190.50;1739545;81;21190;-79
2021/10/14 09:48:08;;;;;;;;;;;;;;;11.73;68.43;101206.41;1747068;82;21005;-80
2021/10/14 09:50:45;;;;;;;11.88;10.55;;;;;;;11.77;67.85;101203.16;1744217;81;20112;-80
2021/10/14 09:53:20;;;;;;;17.10;11.35;;;;;;;11.68;67.68;101209.77;1744337;82;20995;-78
2021/10/14 09:55:49;;;;;;;16.95;12.82;;;;;;;11.61;67.89;101210.56;1744409;81;20920;-82
2021/10/14 09:58:16;;;;;;;17.30;13.15;;;;;;;11.57;67.64;101223.95;1744738;80;21768;-79
2021/10/14 10:00:43;;;;;;;12.88;9.33;;;;;;;11.56;67.91;101223.55;1744461;82;21449;-78
2021/10/14 10:03:22;;;;;;;17.67;12.13;;;;;;;11.67;68.12;101221.66;1744611;80;20949;-83
2021/10/14 10:05:51;;;;;;;10.68;9.48;;;;;;;11.92;67.94;101225.98;1744457;81;21471;-82
2021/10/14 10:08:39;;;;;;;14.78;10.10;;;;;;;12.44;67.51;101216.90;1744683;82;21019;-82
2021/10/14 10:11:14;;;;;;;11.28;9.60;;;;;;;12.99;65.99;101219.36;1744371;81;20866;-83
2021/10/14 10:13:52;;;;;;;11.08;9.48;;;;;;;13.67;63.78;101216.91;1744408;81;21426;-82
2021/10/14 10:16:21;;;;;;;12.63;9.78;;;;;;;13.99;62.19;101226.34;1708805;83;20983;-84
2021/10/14 10:18:52;;;;;;;14.38;9.58;;;;;;;14.22;61.01;101220.88;1708845;84;20904;-83
2021/10/14 10:21:36;;;;;;;11.05;9.93;;;;;;;14.69;59.68;101232.72;1708740;83;21027;-82
2021/10/14 10:24:07;;;;;;;9.38;8.40;;;;;;;14.69;59.68;101232.72;1708916;82;21111;-80
2021/10/14 10:26:51;;;;;;;13.40;8.83;;;;;;;15.17;57.67;101238.25;1708204;83;21395;-82
2021/10/14 10:29:39;;;;;;;11.57;9.08;;;;;;;15.70;56.95;101241.55;1709148;84;20956;-81
2021/10/14 10:32:15;;;;;;;9.48;8.48;;;;;;;16.33;55.76;101248.05;1707176;83;20901;-78
2021/10/14 10:34:55;;;;;;;9.28;8.28;;;;;;;16.75;53.47;101251.09;1706504;82;20884;-82
2021/10/14 10:37:38;;;;;;;13.75;8.85;;;;;;;17.01;52.29;101252.23;1708761;82;21904;-82
2021/10/14 10:40:21;;;;;;;8.83;7.83;;;;;;;17.09;51.52;101261.28;1708853;82;20920;-82
2021/10/14 10:43:14;;;;;;;8.73;7.70;;;;;;;17.14;50.89;101267.55;1708856;82;21537;-80
2021/10/14 10:45:49;;;;;;;10.32;7.67;;;;;;;17.03;51.00;101275.03;1708497;84;20900;-81
2021/10/14 10:48:18;;;;;;;7.45;6.53;;;;;;;16.90;50.95;101272.47;1708979;84;21351;-84
2021/10/14 10:50:49;;;;;;;10.23;7.67;;;;;;;16.71;50.59;101279.59;1709193;84;21161;-83
2021/10/14 10:53:22;;;;;;;11.15;8.68;;;;;;;16.47;50.53;101280.11;1708698;83;20848;-83
2021/10/14 10:55:57;;;;;;;12.90;8.78;;;;;;;16.18;51.23;101292.36;1708960;82;21002;-83
2021/10/14 10:58:45;;;;;;;10.48;9.10;;;;;;;15.85;51.49;101287.70;1709080;83;20900;-82
2021/10/14 11:01:14;;;;;;;13.75;10.35;;;;;;;15.49;51.56;101288.00;1708830;82;20991;-83
2021/10/14 11:04:01;;;;;;;9.88;8.03;;;;;;;15.12;52.71;101298.02;1745146;82;21118;-84
2021/10/14 11:06:30;;;;;;;9.53;8.60;;;;;;;14.85;52.99;101294.13;1744589;82;20933;-84
2021/10/14 11:09:06;;;;;;;11.38;9.05;;;;;;;14.56;53.66;101292.08;1745103;82;20959;-84
2021/10/14 11:11:35;;;;;;;13.03;9.63;;;;;;;14.35;54.98;101292.16;1744911;82;20956;-85
2021/10/14 11:14:02;;;;;;;11.18;8.28;;;;;;;14.19;55.50;101311.61;1744555;81;20928;-83
2021/10/14 11:16:31;;;;;;;11.28;8.48;;;;;;;13.85;55.89;101307.17;1744857;80;21896;-84
2021/10/14 11:18:58;;;;;;;10.32;8.68;;;;;;;13.85;55.89;101307.17;1744608;82;20928;-83
2021/10/14 11:21:26;;;;;;;11.80;8.83;;;;;;;13.70;56.58;101310.76;1744610;81;21338;-85
2021/10/14 11:23:58;;;;;;;9.55;8.28;;;;;;;13.60;57.27;101320.16;1744440;82;20960;-84
2021/10/14 11:26:34;;;;;;;13.65;9.50;;;;;;;13.53;58.04;101323.64;1744787;81;20968;-83
2021/10/14 11:29:04;;;;;;;12.03;8.58;;;;;;;13.36;58.49;101336.55;1744779;81;21152;-83